Time;durP1;ratioP1;P1;durP2;ratioP2;P2;SDS_P1;SDS_P2;PMS_P1;PMS_P2;Temp;Humidity;BMP_temperature;BMP_pressure;BME280_temperature;BME280_humidity;BME280_pressure;Samples;Min_cycle;Max_cycle;Signal;HPM_P1;HPM_P2
2021/08/04 00:02:16;;;;;;;1.20;1.10;;;13.20;99.90;;;;;;5006279;28;21153;-95
2021/08/04 00:05:02;;;;;;;1.10;0.77;;;13.20;99.90;;;;;;5004398;28;20222;-95
2021/08/04 00:07:39;;;;;;;0.77;0.77;;;13.20;99.90;;;;;;4995077;28;20203;-95
2021/08/04 00:10:08;;;;;;;2.27;1.23;;;13.20;99.90;;;;;;4997813;28;21140;-96
2021/08/04 00:12:37;;;;;;;1.50;0.80;;;13.20;99.90;;;;;;5010888;28;20222;-95
2021/08/04 00:15:06;;;;;;;1.70;1.17;;;13.30;99.90;;;;;;5003043;28;20759;-95
2021/08/04 00:17:36;;;;;;;0.93;0.80;;;13.30;99.90;;;;;;5004792;28;20276;-95
2021/08/04 00:20:12;;;;;;;0.67;0.67;;;13.40;99.90;;;;;;4988801;28;20218;-95
2021/08/04 00:22:50;;;;;;;2.17;1.20;;;13.40;99.90;;;;;;4995816;28;20213;-95
2021/08/04 00:25:43;;;;;;;1.47;0.90;;;13.50;99.90;;;;;;5004863;28;20222;-95
2021/08/04 00:28:18;;;;;;;1.23;1.20;;;13.50;99.90;;;;;;5004869;28;20757;-95
2021/08/04 00:30:47;;;;;;;1.70;1.20;;;13.50;99.90;;;;;;5005129;28;20192;-95
2021/08/04 00:33:33;;;;;;;0.90;0.80;;;13.50;99.90;;;;;;5006625;28;20291;-95
2021/08/04 00:36:09;;;;;;;1.00;0.90;;;13.60;99.90;;;;;;5003275;28;20274;-95
2021/08/04 00:38:40;;;;;;;1.43;1.13;;;13.70;99.90;;;;;;5004265;28;20219;-95
2021/08/04 00:41:17;;;;;;;1.30;1.10;;;13.80;99.90;;;;;;5004641;28;20249;-95
2021/08/04 00:44:15;;;;;;;;;;;;;;;;;;;;;
2021/08/04 00:49:55;;;;;;;1.60;1.30;;;13.90;99.90;;;;;;5010277;28;21020;-96
2021/08/04 00:52:24;;;;;;;1.20;1.10;;;14.00;99.90;;;;;;4987914;28;20252;-94
2021/08/04 00:55:07;;;;;;;1.77;1.30;;;14.10;99.90;;;;;;5000850;28;20329;-95
2021/08/04 00:57:42;;;;;;;1.30;1.00;;;14.20;99.90;;;;;;5004017;28;20252;-95
2021/08/04 01:00:16;;;;;;;2.33;1.27;;;14.20;99.90;;;;;;5002373;28;20222;-94
2021/08/04 01:02:53;;;;;;;2.33;1.53;;;14.30;99.90;;;;;;5003249;28;20246;-95
2021/08/04 01:05:30;;;;;;;3.83;2.07;;;14.30;99.90;;;;;;5006740;28;21279;-96
2021/08/04 01:08:10;;;;;;;6.33;1.30;;;14.40;99.90;;;;;;5008050;28;20218;-94
2021/08/04 01:10:56;;;;;;;1.50;1.20;;;14.40;99.90;;;;;;5009440;28;20174;-95
2021/08/04 01:13:25;;;;;;;2.27;1.47;;;14.30;99.90;;;;;;4993676;28;20198;-96
2021/08/04 01:16:09;;;;;;;1.73;1.23;;;14.30;99.90;;;;;;5010257;28;20256;-96
2021/08/04 01:18:45;;;;;;;2.90;1.20;;;14.40;99.90;;;;;;5008739;28;20217;-96
2021/08/04 01:21:21;;;;;;;2.83;1.77;;;14.30;99.90;;;;;;5024365;28;20237;-96
2021/08/04 01:24:03;;;;;;;3.83;1.53;;;14.20;99.90;;;;;;5006088;28;20230;-95
2021/08/04 01:26:48;;;;;;;3.73;1.90;;;14.20;99.90;;;;;;4993963;28;21166;-95
2021/08/04 01:29:22;;;;;;;2.07;1.70;;;14.20;99.90;;;;;;5022965;28;20214;-95
2021/08/04 01:32:01;;;;;;;2.13;1.73;;;14.20;99.90;;;;;;5007558;28;20219;-95
2021/08/04 01:34:30;;;;;;;1.73;1.40;;;14.20;99.90;;;;;;5006912;28;20206;-95
2021/08/04 01:36:56;;;;;;;2.07;1.33;;;14.30;99.90;;;;;;5007253;28;20179;-94
2021/08/04 01:39:29;;;;;;;2.53;1.43;;;14.30;99.90;;;;;;4997945;28;20214;-95
2021/08/04 01:42:03;;;;;;;3.07;1.77;;;14.40;99.90;;;;;;4990428;28;20218;-95
2021/08/04 01:44:35;;;;;;;2.10;1.67;;;14.40;99.90;;;;;;4999520;28;20214;-94
2021/08/04 01:47:06;;;;;;;2.60;2.03;;;14.30;99.90;;;;;;5013824;28;20300;-95
2021/08/04 01:49:45;;;;;;;1.43;1.33;;;14.30;99.90;;;;;;5007549;28;20632;-95
2021/08/04 01:52:20;;;;;;;1.73;1.30;;;14.30;99.90;;;;;;4994616;28;20191;-96
2021/08/04 01:54:57;;;;;;;2.43;1.73;;;14.30;99.90;;;;;;4982139;28;20222;-95
2021/08/04 01:57:25;;;;;;;5.87;2.33;;;14.30;99.90;;;;;;4991349;28;20750;-95
2021/08/04 02:00:12;;;;;;;2.17;1.97;;;14.40;99.90;;;;;;5010703;28;20222;-96
2021/08/04 02:02:55;;;;;;;2.33;1.40;;;14.40;99.90;;;;;;5028712;28;20227;-95
2021/08/04 02:05:23;;;;;;;2.37;1.83;;;14.40;99.90;;;;;;4990164;28;20226;-95
2021/08/04 02:08:07;;;;;;;2.93;2.07;;;14.40;99.90;;;;;;5004461;28;20218;-95
2021/08/04 02:11:03;;;;;;;2.73;1.77;;;14.40;99.90;;;;;;5004171;28;20198;-95
2021/08/04 02:13:49;;;;;;;2.03;1.73;;;14.40;99.90;;;;;;5007354;28;20715;-95
2021/08/04 02:16:46;;;;;;;2.57;2.07;;;14.40;99.90;;;;;;5023301;28;20204;-95
2021/08/04 02:19:24;;;;;;;2.33;1.73;;;14.40;99.90;;;;;;5021612;28;20704;-95
2021/08/04 02:22:09;;;;;;;3.83;2.20;;;14.40;99.90;;;;;;5001306;28;20257;-95
2021/08/04 02:24:44;;;;;;;2.40;1.57;;;14.40;99.90;;;;;;5001049;28;20211;-95
2021/08/04 02:27:29;;;;;;;2.97;1.73;;;14.40;99.90;;;;;;4985280;28;20237;-95
2021/08/04 02:30:01;;;;;;;2.30;1.67;;;14.40;99.90;;;;;;5002140;28;20218;-95
2021/08/04 02:32:28;;;;;;;2.67;2.07;;;14.40;99.90;;;;;;5004079;28;21126;-95
2021/08/04 02:34:54;;;;;;;3.60;2.53;;;14.50;99.90;;;;;;5005194;28;20245;-95
2021/08/04 02:37:23;;;;;;;2.50;2.00;;;14.50;99.90;;;;;;5005240;28;20672;-95
2021/08/04 02:40:04;;;;;;;;;;;;;;;;;;;;;
2021/08/04 02:42:54;;;;;;;2.73;1.87;;;14.50;99.90;;;;;;5010790;28;20207;-96
2021/08/04 02:45:36;;;;;;;2.70;1.50;;;14.50;99.90;;;;;;5005921;28;20699;-96
2021/08/04 02:48:06;;;;;;;2.23;1.40;;;14.50;99.90;;;;;;5005796;28;20230;-95
2021/08/04 02:50:45;;;;;;;3.13;1.97;;;14.50;99.90;;;;;;5015002;28;20225;-94
2021/08/04 02:53:19;;;;;;;2.50;1.77;;;14.50;99.90;;;;;;5005011;28;20222;-94
2021/08/04 02:55:50;;;;;;;3.83;1.90;;;14.50;99.90;;;;;;4980269;28;20291;-96
2021/08/04 02:58:19;;;;;;;3.20;1.77;;;14.40;99.90;;;;;;5006224;28;20237;-95
2021/08/04 03:01:00;;;;;;;;;;;;;;;;;;;;;
2021/08/04 03:03:39;;;;;;;2.80;1.63;;;14.40;99.90;;;;;;5000476;28;20269;-95
2021/08/04 03:06:05;;;;;;;2.13;1.77;;;14.40;99.90;;;;;;4992888;28;20295;-95
2021/08/04 03:08:31;;;;;;;2.17;1.40;;;14.40;99.90;;;;;;5005410;28;20246;-95
2021/08/04 03:11:02;;;;;;;2.10;1.33;;;14.30;99.90;;;;;;5003323;28;20225;-95
2021/08/04 03:13:31;;;;;;;2.37;1.40;;;14.30;99.90;;;;;;4995640;28;20187;-95
2021/08/04 03:16:09;;;;;;;2.47;1.23;;;14.20;99.90;;;;;;5016067;28;20199;-95
2021/08/04 03:18:35;;;;;;;2.70;1.87;;;14.20;99.90;;;;;;5003205;28;20238;-94
2021/08/04 03:21:25;;;;;;;3.50;1.70;;;14.20;99.90;;;;;;4987696;28;20739;-96
2021/08/04 03:23:53;;;;;;;3.27;2.20;;;14.10;99.90;;;;;;4989608;28;20225;-95
2021/08/04 03:26:22;;;;;;;5.07;2.20;;;14.20;99.90;;;;;;5003737;28;20345;-96
2021/08/04 03:28:52;;;;;;;3.07;2.10;;;14.20;99.90;;;;;;4995027;28;20249;-95
2021/08/04 03:31:21;;;;;;;3.07;2.07;;;14.20;99.90;;;;;;5005683;28;20905;-95
2021/08/04 03:33:47;;;;;;;3.23;2.07;;;14.20;99.90;;;;;;5021829;28;20272;-95
2021/08/04 03:36:13;;;;;;;3.13;1.97;;;14.30;99.90;;;;;;5004472;28;20238;-95
2021/08/04 03:38:41;;;;;;;2.07;1.57;;;14.20;99.90;;;;;;5005757;28;20227;-95
2021/08/04 03:41:07;;;;;;;2.43;1.90;;;14.20;99.90;;;;;;5002115;28;20272;-95
2021/08/04 03:43:36;;;;;;;3.50;1.73;;;14.30;99.90;;;;;;5004720;28;20244;-94
2021/08/04 03:46:06;;;;;;;2.30;1.70;;;14.20;99.90;;;;;;5008041;28;20194;-94
2021/08/04 03:48:35;;;;;;;3.57;2.10;;;14.20;99.90;;;;;;5006863;28;20225;-96
2021/08/04 03:51:07;;;;;;;2.97;1.63;;;14.20;99.90;;;;;;4988436;28;20280;-95
2021/08/04 03:53:48;;;;;;;1.73;1.47;;;14.20;99.90;;;;;;5006232;28;20222;-96
2021/08/04 03:56:42;;;;;;;2.20;1.73;;;14.30;99.90;;;;;;4992678;28;20273;-96
2021/08/04 03:59:25;;;;;;;2.10;1.73;;;14.30;99.90;;;;;;4992757;28;20813;-96
2021/08/04 04:01:50;;;;;;;2.37;1.60;;;14.40;99.90;;;;;;4984911;28;20226;-95
2021/08/04 04:04:30;;;;;;;3.93;1.70;;;14.40;99.90;;;;;;5006351;28;20178;-95
2021/08/04 04:06:59;;;;;;;2.67;1.77;;;14.40;99.90;;;;;;4988649;28;20195;-96
2021/08/04 04:09:37;;;;;;;2.07;1.80;;;14.40;99.90;;;;;;4987348;28;20317;-95
2021/08/04 04:12:06;;;;;;;2.20;2.00;;;14.40;99.90;;;;;;4935879;28;20227;-95
2021/08/04 04:14:35;;;;;;;5.13;1.77;;;14.40;99.90;;;;;;4985614;28;20306;-95
2021/08/04 04:17:16;;;;;;;;;;;;;;;;;;;;;
2021/08/04 04:19:45;;;;;;;6.57;2.20;;;14.40;99.90;;;;;;5023664;28;20194;-95
2021/08/04 04:22:13;;;;;;;4.93;2.47;;;14.40;99.90;;;;;;4981023;28;20233;-95
2021/08/04 04:24:44;;;;;;;3.73;2.07;;;14.50;99.90;;;;;;5017857;28;20233;-95
2021/08/04 04:27:13;;;;;;;3.17;2.07;;;14.50;99.90;;;;;;5022688;28;20656;-94
2021/08/04 04:29:39;;;;;;;5.27;1.80;;;14.50;99.90;;;;;;5004980;28;20222;-95
2021/08/04 04:32:10;;;;;;;2.63;1.47;;;14.60;99.90;;;;;;5002062;28;20234;-96
2021/08/04 04:34:37;;;;;;;3.53;2.17;;;14.60;99.90;;;;;;5020944;28;20237;-95
2021/08/04 04:37:06;;;;;;;2.50;1.77;;;14.60;99.90;;;;;;5002920;28;20664;-93
2021/08/04 04:39:52;;;;;;;5.37;1.80;;;14.70;99.90;;;;;;5011422;28;20218;-95
2021/08/04 04:42:18;;;;;;;3.27;1.83;;;14.70;99.90;;;;;;5003727;28;20193;-93
2021/08/04 04:44:44;;;;;;;3.33;1.30;;;14.70;99.90;;;;;;5003994;28;20194;-86
2021/08/04 04:47:10;;;;;;;3.47;2.30;;;14.80;99.90;;;;;;5005151;28;20284;-92
2021/08/04 04:49:35;;;;;;;5.27;1.67;;;14.80;99.90;;;;;;4988064;28;20270;-93
2021/08/04 04:52:01;;;;;;;4.60;2.20;;;14.80;99.90;;;;;;4989669;28;20392;-94
2021/08/04 04:54:29;;;;;;;3.13;1.73;;;14.80;99.90;;;;;;5014725;28;20218;-93
2021/08/04 04:56:55;;;;;;;2.53;1.87;;;14.80;99.90;;;;;;5025900;28;20207;-91
2021/08/04 04:59:26;;;;;;;3.20;1.70;;;14.80;99.90;;;;;;5008341;28;20325;-92
2021/08/04 05:01:59;;;;;;;2.97;1.90;;;14.80;99.90;;;;;;5009555;28;20276;-93
2021/08/04 05:04:25;;;;;;;2.80;2.10;;;14.80;99.90;;;;;;5002702;28;20218;-93
2021/08/04 05:06:53;;;;;;;1.67;1.43;;;14.90;99.90;;;;;;5008072;28;20226;-92
2021/08/04 05:09:19;;;;;;;2.67;1.90;;;14.90;99.90;;;;;;4982202;28;20191;-91
2021/08/04 05:11:47;;;;;;;2.53;1.80;;;14.90;99.90;;;;;;5022533;28;20277;-93
2021/08/04 05:14:15;;;;;;;3.80;2.23;;;15.00;99.90;;;;;;5007418;28;20701;-93
2021/08/04 05:16:43;;;;;;;2.80;1.70;;;15.00;99.90;;;;;;4992000;28;20223;-93
2021/08/04 05:19:12;;;;;;;2.53;1.97;;;15.10;99.90;;;;;;5005991;28;20240;-93
2021/08/04 05:21:53;;;;;;;3.07;2.13;;;15.10;99.90;;;;;;4989472;28;20264;-92
2021/08/04 05:24:22;;;;;;;2.63;1.90;;;15.20;99.90;;;;;;5019405;28;20718;-92
2021/08/04 05:26:48;;;;;;;2.50;2.23;;;15.20;99.90;;;;;;5026477;28;20187;-93
2021/08/04 05:29:13;;;;;;;1.93;1.40;;;15.40;99.90;;;;;;5006352;28;20283;-93
2021/08/04 05:31:39;;;;;;;3.37;1.77;;;15.60;99.90;;;;;;4991469;28;20246;-93
2021/08/04 05:34:22;;;;;;;;;;;;;;;;;;;;;
2021/08/04 05:37:11;;;;;;;2.33;2.10;;;15.80;99.90;;;;;;5008877;28;20210;-93
2021/08/04 05:39:46;;;;;;;4.30;2.73;;;16.70;99.90;;;;;;5003440;28;20310;-91
2021/08/04 05:42:14;;;;;;;1.90;1.53;;;18.80;99.90;;;;;;4998069;28;20191;-92
2021/08/04 05:44:43;;;;;;;3.10;1.80;;;20.40;99.90;;;;;;4982207;28;20219;-95
2021/08/04 05:47:09;;;;;;;3.53;2.13;;;21.00;99.90;;;;;;5008315;28;20219;-91
2021/08/04 05:49:35;;;;;;;4.17;2.10;;;20.80;99.90;;;;;;5004959;28;20254;-92
2021/08/04 05:52:01;;;;;;;3.70;1.80;;;20.40;99.90;;;;;;4988742;28;20329;-92
2021/08/04 05:54:30;;;;;;;3.80;1.90;;;20.60;99.90;;;;;;5006125;28;20213;-91
2021/08/04 05:57:04;;;;;;;3.03;1.70;;;22.30;99.90;;;;;;5005907;28;20187;-94
2021/08/04 05:59:40;;;;;;;2.10;1.90;;;24.40;99.90;;;;;;5014190;28;20810;-92
2021/08/04 06:02:33;;;;;;;2.50;1.90;;;26.10;99.90;;;;;;5005933;28;20276;-91
2021/08/04 06:05:19;;;;;;;2.93;1.60;;;26.50;99.90;;;;;;5016262;28;20234;-92
2021/08/04 06:07:47;;;;;;;5.10;1.80;;;28.10;99.90;;;;;;5006260;28;20741;-91
2021/08/04 06:10:23;;;;;;;1.50;1.40;;;28.60;99.90;;;;;;5014741;28;20234;-93
2021/08/04 06:12:56;;;;;;;2.47;1.50;;;28.40;99.90;;;;;;4991946;28;20231;-94
2021/08/04 06:15:24;;;;;;;3.10;2.03;;;27.70;99.90;;;;;;4998242;28;20214;-93
2021/08/04 06:17:52;;;;;;;1.83;1.35;;;27.30;99.90;;;;;;5005036;28;20195;-95
2021/08/04 06:20:28;;;;;;;;;;;;;;;;;;;;;
2021/08/04 06:22:57;;;;;;;2.17;1.17;;;27.60;99.90;;;;;;5023865;28;20207;-92
2021/08/04 06:25:28;;;;;;;1.73;1.13;;;26.80;99.90;;;;;;5006080;28;20358;-92
2021/08/04 06:27:54;;;;;;;1.75;1.00;;;24.40;99.90;;;;;;5012283;28;20222;-90
2021/08/04 06:30:21;;;;;;;1.63;1.30;;;24.10;99.90;;;;;;5003654;28;20349;-91
2021/08/04 06:32:46;;;;;;;0.75;0.73;;;23.90;99.90;;;;;;5007159;28;21084;-92
2021/08/04 06:35:12;;;;;;;0.77;0.73;;;23.80;99.90;;;;;;5023066;28;20249;-91
2021/08/04 06:37:38;;;;;;;1.05;0.90;;;23.60;99.90;;;;;;4989877;28;20229;-91
2021/08/04 06:40:05;;;;;;;1.88;1.02;;;23.10;99.90;;;;;;4984187;28;21075;-93
2021/08/04 06:42:30;;;;;;;0.80;0.80;;;22.60;99.90;;;;;;5004157;28;20727;-92
2021/08/04 06:44:56;;;;;;;2.25;1.00;;;22.40;99.90;;;;;;4989323;28;20182;-94
2021/08/04 06:47:28;;;;;;;0.75;0.75;;;22.30;99.90;;;;;;4990477;28;20273;-90
2021/08/04 06:49:54;;;;;;;1.05;0.93;;;21.20;99.90;;;;;;4989377;28;20318;-92
2021/08/04 06:52:19;;;;;;;0.80;0.80;;;21.10;99.90;;;;;;5006424;28;21203;-89
2021/08/04 06:54:45;;;;;;;3.97;0.70;;;20.70;99.90;;;;;;5006598;28;20774;-92
2021/08/04 06:57:11;;;;;;;1.00;0.90;;;20.00;99.90;;;;;;4989762;28;20687;-90
2021/08/04 06:59:36;;;;;;;1.17;0.80;;;19.40;99.90;;;;;;4988353;28;20222;-90
2021/08/04 07:02:02;;;;;;;0.70;0.70;;;18.80;99.90;;;;;;4989550;28;20257;-89
2021/08/04 07:04:29;;;;;;;0.90;0.90;;;19.20;99.90;;;;;;5004997;28;20225;-90
2021/08/04 07:06:56;;;;;;;1.03;0.80;;;19.60;99.90;;;;;;4988818;28;20331;-90
2021/08/04 07:09:22;;;;;;;0.90;0.80;;;20.30;99.90;;;;;;5005965;28;20195;-92
2021/08/04 07:11:48;;;;;;;1.07;0.83;;;20.60;99.90;;;;;;5015691;28;20667;-92
2021/08/04 07:14:16;;;;;;;0.70;0.70;;;20.80;99.90;;;;;;5005525;28;20222;-95
2021/08/04 07:16:43;;;;;;;1.10;0.93;;;21.70;99.90;;;;;;5023775;28;20222;-92
2021/08/04 07:19:10;;;;;;;0.70;0.70;;;21.00;99.90;;;;;;4996123;28;20249;-93
2021/08/04 07:21:37;;;;;;;0.80;0.67;;;20.50;99.90;;;;;;4989458;28;20222;-92
2021/08/04 07:24:03;;;;;;;1.40;0.67;;;20.70;99.90;;;;;;4999090;28;20198;-93
2021/08/04 07:26:29;;;;;;;0.70;0.70;;;20.80;99.90;;;;;;4989454;28;20253;-92
2021/08/04 07:28:56;;;;;;;2.03;0.80;;;21.40;99.90;;;;;;5012135;28;20326;-92
2021/08/04 07:31:25;;;;;;;0.60;0.60;;;22.30;99.90;;;;;;4988901;28;20230;-94
2021/08/04 07:34:14;;;;;;;0.60;0.60;;;22.50;99.90;;;;;;5005568;28;20762;-92
2021/08/04 07:37:08;;;;;;;0.80;0.80;;;21.40;99.90;;;;;;5007444;28;20309;-92
2021/08/04 07:39:56;;;;;;;0.60;0.60;;;20.40;99.90;;;;;;5007283;28;20230;-94
2021/08/04 07:42:30;;;;;;;0.60;0.60;;;19.60;99.90;;;;;;5003629;28;20182;-93
2021/08/04 07:45:03;;;;;;;0.60;0.60;;;19.30;99.90;;;;;;5021792;28;20212;-94
2021/08/04 07:47:37;;;;;;;0.63;0.63;;;19.50;99.90;;;;;;5003404;28;20672;-91
2021/08/04 07:50:09;;;;;;;4.10;0.63;;;19.70;99.90;;;;;;5023045;28;20217;-90
2021/08/04 07:52:44;;;;;;;0.60;0.60;;;19.70;99.90;;;;;;5005225;28;20223;-94
2021/08/04 07:55:16;;;;;;;0.70;0.70;;;19.50;99.90;;;;;;5006027;28;20230;-94
2021/08/04 07:57:50;;;;;;;0.87;0.87;;;19.70;99.90;;;;;;4996268;28;20234;-92
2021/08/04 08:00:19;;;;;;;1.47;1.03;;;19.40;99.90;;;;;;5022424;28;20595;-91
2021/08/04 08:02:54;;;;;;;0.60;0.60;;;19.20;99.90;;;;;;5022969;28;20179;-94
2021/08/04 08:05:27;;;;;;;1.20;0.70;;;19.20;99.90;;;;;;5020733;28;20232;-93
2021/08/04 08:07:53;;;;;;;2.13;0.80;;;19.90;99.90;;;;;;4994497;28;20215;-92
2021/08/04 08:10:25;;;;;;;0.60;0.60;;;20.90;99.90;;;;;;5022417;28;20217;-92
2021/08/04 08:12:51;;;;;;;1.23;1.13;;;21.00;99.90;;;;;;5005105;28;20238;-90
2021/08/04 08:15:17;;;;;;;0.70;0.70;;;21.20;99.90;;;;;;5023550;28;20211;-90
2021/08/04 08:17:54;;;;;;;0.60;0.60;;;22.40;99.90;;;;;;5004271;28;20211;-92
2021/08/04 08:20:27;;;;;;;0.60;0.60;;;22.70;99.90;;;;;;5002906;28;20240;-93
2021/08/04 08:23:21;;;;;;;0.50;0.50;;;21.80;99.90;;;;;;5004159;28;20215;-93
2021/08/04 08:25:50;;;;;;;0.70;0.70;;;21.20;99.90;;;;;;5002977;28;20222;-95
2021/08/04 08:28:25;;;;;;;0.50;0.50;;;21.20;99.90;;;;;;5002587;28;20700;-92
2021/08/04 08:31:08;;;;;;;1.50;0.82;;;20.90;99.90;;;;;;4974890;28;20258;-94
2021/08/04 08:33:37;;;;;;;0.60;0.60;;;20.80;99.90;;;;;;4966318;28;20190;-96
2021/08/04 08:36:28;;;;;;;;;;;;;;;;;;;;;
2021/08/04 08:39:34;;;;;;;1.27;0.65;;;21.60;99.90;;;;;;4983720;28;20222;-96
2021/08/04 08:42:28;;;;;;;0.60;0.60;;;22.00;99.90;;;;;;5002335;28;20182;-91
2021/08/04 08:45:12;;;;;;;1.40;0.70;;;22.00;99.90;;;;;;4990983;28;20225;-96
2021/08/04 08:47:59;;;;;;;1.85;0.70;;;22.20;99.90;;;;;;4983383;28;20215;-94
2021/08/04 08:51:01;;;;;;;;;;;;;;;;;;;;;
2021/08/04 08:53:42;;;;;;;;;;;;;;;;;;;;;
2021/08/04 08:56:14;;;;;;;0.80;0.70;;;21.50;99.90;;;;;;4989239;28;20340;-94
2021/08/04 08:58:57;;;;;;;;;;;;;;;;;;;;;
2021/08/04 09:01:39;;;;;;;0.70;0.70;;;22.00;99.90;;;;;;5022151;28;20230;-95
2021/08/04 09:04:26;;;;;;;0.80;0.80;;;22.20;99.90;;;;;;4991156;28;20223;-93
2021/08/04 09:07:38;;;;;;;1.20;0.73;;;22.20;99.90;;;;;;4971561;28;20230;-93
2021/08/04 09:10:43;;;;;;;;;;;;;;;;;;;;;
2021/08/04 09:13:24;;;;;;;0.40;0.40;;;21.80;99.90;;;;;;5009549;28;20246;-94
2021/08/04 09:19:29;;;;;;;0.77;0.77;;;21.10;99.90;;;;;;5000368;28;20215;-91
2021/08/04 09:22:22;;;;;;;1.03;0.93;;;21.60;99.90;;;;;;4988651;28;20290;-91
2021/08/04 09:25:33;;;;;;;;;;;;;;;;;;;;;
2021/08/04 09:28:04;;;;;;;0.70;0.70;;;21.90;99.90;;;;;;5008782;28;20309;-92
2021/08/04 09:30:47;;;;;;;;;;;;;;;;;;;;;
2021/08/04 09:33:36;;;;;;;;;;;;;;;;;;;;;
2021/08/04 09:36:05;;;;;;;0.70;0.70;;;22.50;99.90;;;;;;5013261;28;20740;-95
2021/08/04 09:39:08;;;;;;;0.52;0.50;;;22.50;99.90;;;;;;4989528;28;20214;-95
2021/08/04 09:42:00;;;;;;;0.80;0.80;;;21.80;99.90;;;;;;4941954;28;20214;-90
2021/08/04 09:44:29;;;;;;;1.40;0.70;;;21.80;99.90;;;;;;4975359;28;20322;-94
2021/08/04 09:47:19;;;;;;;0.90;0.80;;;22.20;99.90;;;;;;4997606;28;20250;-94
2021/08/04 09:50:00;;;;;;;1.13;0.90;;;23.10;99.90;;;;;;5014223;28;20219;-92
2021/08/04 09:52:49;;;;;;;1.67;0.98;;;22.70;99.90;;;;;;5025591;28;21037;-92
2021/08/04 09:55:21;;;;;;;0.77;0.70;;;22.40;99.90;;;;;;5009884;28;20530;-93
2021/08/04 09:57:50;;;;;;;0.82;0.77;;;22.60;99.90;;;;;;5002147;28;20701;-92
2021/08/04 10:00:17;;;;;;;0.70;0.70;;;22.80;99.90;;;;;;5006301;28;20273;-91
2021/08/04 10:02:46;;;;;;;1.27;0.80;;;23.00;99.90;;;;;;5023843;28;20702;-90
2021/08/04 10:05:24;;;;;;;2.95;0.70;;;23.00;99.90;;;;;;4992075;28;20297;-93
2021/08/04 10:08:07;;;;;;;0.60;0.60;;;23.60;99.90;;;;;;5006630;28;20222;-89
2021/08/04 10:10:51;;;;;;;0.80;0.70;;;23.40;99.90;;;;;;5006210;28;20276;-92
2021/08/04 10:13:28;;;;;;;3.60;0.90;;;22.60;99.90;;;;;;5007716;28;20218;-91
2021/08/04 10:15:59;;;;;;;1.00;0.90;;;22.90;99.90;;;;;;5006183;28;20254;-93
2021/08/04 10:18:32;;;;;;;0.98;0.98;;;22.90;99.90;;;;;;5022896;28;20516;-90
2021/08/04 10:21:04;;;;;;;1.25;0.80;;;22.40;99.90;;;;;;5015381;28;20194;-93
2021/08/04 10:23:33;;;;;;;1.17;0.93;;;22.80;99.90;;;;;;5007178;28;20214;-89
2021/08/04 10:26:02;;;;;;;0.73;0.63;;;23.30;99.90;;;;;;5005462;28;20230;-92
2021/08/04 10:28:29;;;;;;;0.80;0.80;;;23.20;99.90;;;;;;5006589;28;20218;-92
2021/08/04 10:30:59;;;;;;;2.60;0.70;;;22.30;99.90;;;;;;5006748;28;20221;-91
2021/08/04 10:33:25;;;;;;;0.70;0.70;;;22.10;99.90;;;;;;5014095;28;20210;-91
2021/08/04 10:36:07;;;;;;;1.42;0.85;;;21.40;99.90;;;;;;5024042;28;20714;-90
2021/08/04 10:38:39;;;;;;;0.80;0.80;;;21.60;99.90;;;;;;5005331;28;20268;-94
2021/08/04 10:41:18;;;;;;;0.80;0.80;;;21.40;99.90;;;;;;5007181;28;20237;-92
2021/08/04 10:43:52;;;;;;;1.50;0.87;;;22.30;99.90;;;;;;4990637;28;20238;-91
2021/08/04 10:46:30;;;;;;;0.82;0.82;;;22.50;99.90;;;;;;5001578;28;20276;-93
2021/08/04 10:49:22;;;;;;;1.53;0.97;;;23.00;99.90;;;;;;5006134;28;20220;-92
2021/08/04 10:52:11;;;;;;;0.90;0.90;;;22.60;99.90;;;;;;5001852;28;20237;-90
2021/08/04 10:55:00;;;;;;;0.82;0.82;;;22.10;99.90;;;;;;5014535;28;20191;-93
2021/08/04 10:57:36;;;;;;;1.60;1.08;;;22.70;99.90;;;;;;4996474;28;20186;-92
2021/08/04 11:00:21;;;;;;;0.95;0.95;;;22.70;99.90;;;;;;5000740;28;20194;-92
2021/08/04 11:02:49;;;;;;;1.05;0.95;;;22.60;99.90;;;;;;5003956;28;20225;-95
2021/08/04 11:05:18;;;;;;;0.68;0.68;;;23.10;99.90;;;;;;5022069;28;20258;-90
2021/08/04 11:08:16;;;;;;;2.72;1.10;;;22.40;99.90;;;;;;5004153;28;20313;-92
2021/08/04 11:10:42;;;;;;;1.40;0.70;;;21.80;99.90;;;;;;5005589;28;20276;-92
2021/08/04 11:13:08;;;;;;;0.90;0.90;;;22.10;99.90;;;;;;5023222;28;20229;-91
2021/08/04 11:15:34;;;;;;;1.08;0.98;;;22.50;99.90;;;;;;5013692;28;20226;-94
2021/08/04 11:18:13;;;;;;;1.30;1.00;;;22.20;99.90;;;;;;4989733;28;20209;-94
2021/08/04 11:21:00;;;;;;;0.80;0.75;;;22.80;99.90;;;;;;5005009;28;20264;-90
2021/08/04 11:23:43;;;;;;;1.33;0.90;;;22.10;99.90;;;;;;5006161;28;20242;-93
2021/08/04 11:26:26;;;;;;;1.00;0.90;;;21.80;99.90;;;;;;5006317;28;20226;-91
2021/08/04 11:28:53;;;;;;;0.97;0.90;;;21.90;99.90;;;;;;5005202;28;21273;-92
2021/08/04 11:31:19;;;;;;;2.30;1.00;;;21.90;99.90;;;;;;4989356;28;20222;-90
2021/08/04 11:33:45;;;;;;;1.10;1.00;;;21.10;99.90;;;;;;4989359;28;20219;-92
2021/08/04 11:36:31;;;;;;;2.93;0.90;;;21.30;99.90;;;;;;5006930;28;20622;-91
2021/08/04 11:39:15;;;;;;;1.80;1.10;;;21.70;99.90;;;;;;5006217;28;20228;-93
2021/08/04 11:41:46;;;;;;;1.13;0.80;;;21.60;99.90;;;;;;5002657;28;20213;-92
2021/08/04 11:44:27;;;;;;;0.80;0.80;;;21.50;99.90;;;;;;5002829;28;20680;-92
2021/08/04 11:47:10;;;;;;;0.80;0.80;;;21.60;99.90;;;;;;5021036;28;20214;-91
2021/08/04 11:49:39;;;;;;;2.07;0.80;;;21.40;99.90;;;;;;5020926;28;20225;-93
2021/08/04 11:52:15;;;;;;;0.80;0.70;;;21.10;99.90;;;;;;5013958;28;20249;-93
2021/08/04 11:54:57;;;;;;;0.73;0.70;;;21.00;99.90;;;;;;5022135;28;20279;-91
2021/08/04 11:57:30;;;;;;;0.80;0.80;;;21.00;99.90;;;;;;4987171;28;20274;-88
2021/08/04 11:59:58;;;;;;;0.97;0.83;;;21.50;99.90;;;;;;5020571;28;20258;-90
2021/08/04 12:02:25;;;;;;;1.00;0.90;;;21.50;99.90;;;;;;5002887;28;20321;-91
2021/08/04 12:04:53;;;;;;;0.80;0.80;;;20.90;99.90;;;;;;5003301;28;20214;-87
2021/08/04 12:07:22;;;;;;;2.27;0.90;;;20.90;99.90;;;;;;4986896;28;20220;-90
2021/08/04 12:09:49;;;;;;;0.70;0.70;;;21.00;99.90;;;;;;5003871;28;20218;-89
2021/08/04 12:12:22;;;;;;;1.00;1.00;;;21.20;99.90;;;;;;4986516;28;20201;-90
2021/08/04 12:14:49;;;;;;;1.30;1.20;;;21.30;99.90;;;;;;5003353;28;20222;-91
2021/08/04 12:17:23;;;;;;;0.90;0.90;;;21.50;99.90;;;;;;4985897;28;20214;-87
2021/08/04 12:19:50;;;;;;;3.50;1.00;;;21.50;99.90;;;;;;5021684;28;20225;-91
2021/08/04 12:22:18;;;;;;;1.10;1.00;;;21.40;99.90;;;;;;4987795;28;20229;-91
2021/08/04 12:24:48;;;;;;;1.23;1.10;;;21.20;99.90;;;;;;5003127;28;20221;-89
2021/08/04 12:27:27;;;;;;;1.10;1.03;;;21.20;99.90;;;;;;5005445;28;20186;-90
2021/08/04 12:30:30;;;;;;;1.00;0.90;;;21.50;99.90;;;;;;5002183;28;20210;-89
2021/08/04 12:33:12;;;;;;;1.23;0.80;;;21.30;99.90;;;;;;5021583;28;20325;-94
2021/08/04 12:35:46;;;;;;;2.00;0.87;;;21.10;99.90;;;;;;5006226;28;20238;-92
2021/08/04 12:38:15;;;;;;;0.87;0.87;;;21.20;99.90;;;;;;5016696;28;20229;-88
2021/08/04 12:40:45;;;;;;;1.83;1.10;;;21.50;99.90;;;;;;5017489;28;20701;-92
2021/08/04 12:43:12;;;;;;;0.90;0.90;;;21.30;99.90;;;;;;5002100;28;20219;-90
2021/08/04 12:45:52;;;;;;;1.50;1.03;;;21.20;99.90;;;;;;5000073;28;20237;-93
2021/08/04 12:48:20;;;;;;;2.37;0.90;;;21.30;99.90;;;;;;5008266;28;20183;-92
2021/08/04 12:50:54;;;;;;;3.40;1.10;;;21.00;99.90;;;;;;5002556;28;20199;-89
2021/08/04 12:53:26;;;;;;;1.40;1.00;;;20.80;99.90;;;;;;5019004;28;20316;-91
2021/08/04 12:56:08;;;;;;;1.87;0.93;;;20.50;99.90;;;;;;5000870;28;20257;-89
2021/08/04 12:58:57;;;;;;;1.47;0.87;;;20.40;99.90;;;;;;5012295;28;20234;-90
2021/08/04 13:01:33;;;;;;;1.17;0.90;;;20.10;99.90;;;;;;5013356;28;20219;-90
2021/08/04 13:04:32;;;;;;;2.00;0.83;;;20.20;99.90;;;;;;4998968;28;20238;-93
2021/08/04 13:06:59;;;;;;;1.07;1.00;;;20.30;99.90;;;;;;5010037;28;20217;-91
2021/08/04 13:09:27;;;;;;;1.23;1.00;;;20.60;99.90;;;;;;5024762;28;20218;-93
2021/08/04 13:12:14;;;;;;;1.37;1.10;;;20.70;99.90;;;;;;5009326;28;20175;-93
2021/08/04 13:15:04;;;;;;;0.87;0.87;;;20.30;99.90;;;;;;5016848;28;20408;-94
2021/08/04 13:17:32;;;;;;;2.30;1.30;;;20.40;99.90;;;;;;5015657;28;20238;-96
2021/08/04 13:20:34;;;;;;;1.40;1.10;;;20.40;99.90;;;;;;5025308;28;20242;-91
2021/08/04 13:23:00;;;;;;;1.50;0.93;;;20.10;99.90;;;;;;5020233;28;20288;-92
2021/08/04 13:25:27;;;;;;;0.80;0.70;;;20.20;99.90;;;;;;5008961;28;20214;-94
2021/08/04 13:27:56;;;;;;;0.93;0.93;;;20.30;99.90;;;;;;5007292;28;20241;-91
2021/08/04 13:30:25;;;;;;;0.80;0.80;;;20.30;99.90;;;;;;5004902;28;20189;-92
2021/08/04 13:32:51;;;;;;;1.83;1.33;;;20.40;99.90;;;;;;5006683;28;20183;-90
2021/08/04 13:35:17;;;;;;;1.97;0.90;;;20.50;99.90;;;;;;4989555;28;20226;-90
2021/08/04 13:37:43;;;;;;;1.10;1.00;;;20.60;99.90;;;;;;5004723;28;20222;-93
2021/08/04 13:40:10;;;;;;;2.03;0.70;;;20.50;99.90;;;;;;4999888;28;20676;-92
2021/08/04 13:42:41;;;;;;;1.40;1.10;;;20.40;99.90;;;;;;5006993;28;20179;-93
2021/08/04 13:45:08;;;;;;;1.10;0.97;;;20.40;99.90;;;;;;5006380;28;20513;-91
2021/08/04 13:47:33;;;;;;;0.80;0.80;;;20.30;99.90;;;;;;5024265;28;20230;-93
2021/08/04 13:50:04;;;;;;;0.97;0.77;;;20.50;99.90;;;;;;5006637;28;20223;-90